createdAt,value
2019-05-19T00:01:04.470Z,23.17
2019-05-19T00:03:33.607Z,25.07
2019-05-19T00:06:02.736Z,25.50
2019-05-19T00:08:31.886Z,23.93
2019-05-19T00:11:01.044Z,24.30
2019-05-19T00:13:30.132Z,25.27
2019-05-19T00:15:59.199Z,24.67
2019-05-19T00:18:28.298Z,25.53
2019-05-19T00:20:57.364Z,23.60
2019-05-19T00:23:26.527Z,23.77
2019-05-19T00:25:55.594Z,24.20
2019-05-19T00:28:24.650Z,25.07
2019-05-19T00:30:53.799Z,24.17
2019-05-19T00:33:22.791Z,25.77
2019-05-19T00:35:51.948Z,24.00
2019-05-19T00:38:21.082Z,22.50
2019-05-19T00:40:50.246Z,23.17
2019-05-19T00:43:19.986Z,23.70
2019-05-19T00:45:49.092Z,25.43
2019-05-19T00:48:18.134Z,22.43
2019-05-19T00:50:47.315Z,22.80
2019-05-19T00:53:16.478Z,24.70
2019-05-19T00:55:45.615Z,23.90
2019-05-19T00:58:15.208Z,24.67
2019-05-19T01:00:44.378Z,26.27
2019-05-19T01:03:13.469Z,25.30
2019-05-19T01:05:42.624Z,24.87
2019-05-19T01:08:11.815Z,25.93
2019-05-19T01:10:41.008Z,26.67
2019-05-19T01:13:10.132Z,27.80
2019-05-19T01:15:39.244Z,26.27
2019-05-19T01:18:08.436Z,28.97
2019-05-19T01:20:37.603Z,30.43
2019-05-19T01:23:06.755Z,28.53
2019-05-19T01:25:35.922Z,27.40
2019-05-19T01:28:05.070Z,28.90
2019-05-19T01:30:34.268Z,27.33
2019-05-19T01:33:03.456Z,28.23
2019-05-19T01:35:32.684Z,25.57
2019-05-19T01:38:01.796Z,26.07
2019-05-19T01:40:30.900Z,27.40
2019-05-19T01:42:59.990Z,26.80
2019-05-19T01:45:29.088Z,29.20
2019-05-19T01:47:58.103Z,27.67
2019-05-19T01:50:27.254Z,29.20
2019-05-19T01:52:56.364Z,30.33
2019-05-19T01:55:25.494Z,27.37
2019-05-19T01:57:54.496Z,28.77
2019-05-19T02:00:23.704Z,30.23
2019-05-19T02:02:52.803Z,28.47
2019-05-19T02:05:22.028Z,28.63
2019-05-19T02:07:51.099Z,27.97
2019-05-19T02:10:20.329Z,26.60
2019-05-19T02:12:49.407Z,25.67
2019-05-19T02:15:18.944Z,28.50
2019-05-19T02:17:48.116Z,25.83
2019-05-19T02:20:30.568Z,31.27
2019-05-19T02:22:48.508Z,30.03
2019-05-19T02:25:17.852Z,29.60
2019-05-19T02:27:46.998Z,28.90
2019-05-19T02:30:16.309Z,29.10
2019-05-19T02:32:45.425Z,31.43
2019-05-19T02:35:15.378Z,28.70
2019-05-19T02:37:44.436Z,29.10
2019-05-19T02:40:14.033Z,27.10
2019-05-19T02:42:45.120Z,25.80
2019-05-19T02:45:16.235Z,26.57
2019-05-19T02:47:46.893Z,27.27
2019-05-19T02:50:16.053Z,28.40
2019-05-19T02:52:47.920Z,28.17
2019-05-19T02:55:18.799Z,30.20
2019-05-19T02:57:50.592Z,29.90
2019-05-19T03:00:23.407Z,31.53
2019-05-19T03:02:52.409Z,28.80
2019-05-19T03:05:21.591Z,30.30
2019-05-19T03:07:50.694Z,31.10
2019-05-19T03:10:20.512Z,31.30
2019-05-19T03:12:49.559Z,33.53
2019-05-19T03:15:18.793Z,35.30
2019-05-19T03:17:48.150Z,36.87
2019-05-19T03:20:17.312Z,32.47
2019-05-19T03:22:46.356Z,28.77
2019-05-19T03:25:15.450Z,27.00
2019-05-19T03:27:44.539Z,27.17
2019-05-19T03:30:37.024Z,25.57
2019-05-19T03:33:06.621Z,24.80
2019-05-19T03:35:35.644Z,28.97
2019-05-19T03:38:04.699Z,27.17
2019-05-19T03:40:33.799Z,29.43
2019-05-19T03:43:02.797Z,29.70
2019-05-19T03:45:31.939Z,28.97
2019-05-19T03:48:01.011Z,28.17
2019-05-19T03:50:30.115Z,30.07
2019-05-19T03:52:59.280Z,30.97
2019-05-19T03:55:28.333Z,31.27
2019-05-19T03:57:57.392Z,30.90
2019-05-19T04:00:26.599Z,31.70
2019-05-19T04:02:55.704Z,31.13
2019-05-19T04:05:24.790Z,30.00
2019-05-19T04:07:54.028Z,30.63
2019-05-19T04:10:23.139Z,29.10
2019-05-19T04:12:52.251Z,33.33
2019-05-19T04:15:21.703Z,33.73
2019-05-19T04:17:50.765Z,33.37
2019-05-19T04:20:19.868Z,30.90
2019-05-19T04:22:49.222Z,32.00
2019-05-19T04:25:18.638Z,32.83
2019-05-19T04:27:47.733Z,33.50
2019-05-19T04:30:16.908Z,33.50
2019-05-19T04:32:45.965Z,32.03
2019-05-19T04:35:15.123Z,30.27
2019-05-19T04:37:44.171Z,30.70
2019-05-19T04:40:13.509Z,30.20
2019-05-19T04:42:42.709Z,30.30
2019-05-19T04:45:12.084Z,27.23
2019-05-19T04:47:41.165Z,26.90
2019-05-19T04:50:10.928Z,26.77
2019-05-19T04:52:39.962Z,25.10
2019-05-19T04:55:09.376Z,27.07
2019-05-19T04:57:38.412Z,25.10
2019-05-19T05:00:08.709Z,24.47
2019-05-19T05:02:37.733Z,24.83
2019-05-19T05:05:06.987Z,24.93
2019-05-19T05:07:36.087Z,26.27
2019-05-19T05:10:06.266Z,25.17
2019-05-19T05:12:35.668Z,25.77
2019-05-19T05:15:04.945Z,26.13
2019-05-19T05:17:34.020Z,25.63
2019-05-19T05:20:03.218Z,26.00
2019-05-19T05:22:32.218Z,24.93
2019-05-19T05:25:01.436Z,25.23
2019-05-19T05:27:30.490Z,26.93
2019-05-19T05:29:59.575Z,26.07
2019-05-19T05:32:28.633Z,25.43
2019-05-19T05:34:57.744Z,25.83
2019-05-19T05:37:26.839Z,25.47
2019-05-19T05:39:55.967Z,26.93
2019-05-19T05:42:25.161Z,24.30
2019-05-19T05:44:54.182Z,23.73
2019-05-19T05:47:23.509Z,23.73
2019-05-19T05:49:52.548Z,24.67
2019-05-19T05:52:37.228Z,25.27
2019-05-19T05:54:52.310Z,66.10
2019-05-19T05:57:21.389Z,44.70
2019-05-19T05:59:50.412Z,25.67
2019-05-19T06:02:19.826Z,24.70
2019-05-19T06:04:49.164Z,23.57
2019-05-19T06:07:18.300Z,21.60
2019-05-19T06:09:49.055Z,25.03
2019-05-19T06:12:18.054Z,23.90
2019-05-19T06:14:47.119Z,22.50
2019-05-19T06:17:16.265Z,23.97
2019-05-19T06:19:45.326Z,23.90
2019-05-19T06:22:14.461Z,21.30
2019-05-19T06:24:43.557Z,23.33
2019-05-19T06:27:12.628Z,21.87
2019-05-19T06:29:41.769Z,21.53
2019-05-19T06:32:24.067Z,17.70
2019-05-19T06:34:53.100Z,16.67
2019-05-19T06:37:22.111Z,15.97
2019-05-19T06:39:51.236Z,15.10
2019-05-19T06:42:20.346Z,10.57
2019-05-19T06:44:49.411Z,9.93
2019-05-19T06:47:18.509Z,9.40
2019-05-19T06:49:47.974Z,10.13
2019-05-19T06:52:17.036Z,9.43
2019-05-19T06:54:46.384Z,10.60
2019-05-19T06:57:15.500Z,9.87
2019-05-19T06:59:44.829Z,9.60
2019-05-19T07:02:13.885Z,9.27
2019-05-19T07:04:42.917Z,10.57
2019-05-19T07:07:12.095Z,9.37
2019-05-19T07:09:41.211Z,10.40
2019-05-19T07:12:10.346Z,8.70
2019-05-19T07:14:39.397Z,10.13
2019-05-19T07:17:08.545Z,9.47
2019-05-19T07:19:37.740Z,8.33
2019-05-19T07:22:06.882Z,9.30
2019-05-19T07:24:35.923Z,10.60
2019-05-19T07:27:05.091Z,8.20
2019-05-19T07:29:34.116Z,10.50
2019-05-19T07:32:03.315Z,9.70
2019-05-19T07:34:32.454Z,9.60
2019-05-19T07:37:01.536Z,10.87
2019-05-19T07:39:30.587Z,9.60
2019-05-19T07:41:59.616Z,9.47
2019-05-19T07:44:28.770Z,10.43
2019-05-19T07:46:57.828Z,11.00
2019-05-19T07:49:26.940Z,10.17
2019-05-19T07:51:56.008Z,9.70
2019-05-19T07:54:25.173Z,10.40
2019-05-19T07:56:54.231Z,10.53
2019-05-19T07:59:23.367Z,10.53
2019-05-19T08:01:52.387Z,6.97
2019-05-19T08:04:21.564Z,8.27
2019-05-19T08:06:50.667Z,11.17
2019-05-19T08:09:19.811Z,9.90
2019-05-19T08:11:48.862Z,11.03
2019-05-19T08:14:18.048Z,10.83
2019-05-19T08:16:47.085Z,10.60
2019-05-19T08:19:16.222Z,11.17
2019-05-19T08:21:45.347Z,10.50
2019-05-19T08:24:14.407Z,9.93
2019-05-19T08:26:43.507Z,10.90
2019-05-19T08:29:12.548Z,11.30
2019-05-19T08:31:41.943Z,10.40
2019-05-19T08:34:11.184Z,11.37
2019-05-19T08:36:40.247Z,10.90
2019-05-19T08:39:09.510Z,11.33
2019-05-19T08:41:38.705Z,11.37
2019-05-19T08:44:07.893Z,11.43
2019-05-19T08:46:36.997Z,10.03
2019-05-19T08:49:06.151Z,7.30
2019-05-19T08:51:35.195Z,9.80
2019-05-19T08:54:14.478Z,11.97
2019-05-19T08:56:35.427Z,10.10
2019-05-19T08:59:04.579Z,9.73
2019-05-19T09:01:33.583Z,10.23
2019-05-19T09:04:02.651Z,9.47
2019-05-19T09:06:32.336Z,10.50
2019-05-19T09:09:01.804Z,10.20
2019-05-19T09:11:31.235Z,10.37
2019-05-19T09:14:00.549Z,9.60
2019-05-19T09:16:30.139Z,12.80
2019-05-19T09:18:59.336Z,10.07
2019-05-19T09:21:28.603Z,10.00
2019-05-19T09:23:57.698Z,11.90
2019-05-19T09:26:26.667Z,14.33
2019-05-19T09:28:55.772Z,9.93
2019-05-19T09:31:24.805Z,10.87
2019-05-19T09:33:53.984Z,10.00
2019-05-19T09:36:23.377Z,11.13
2019-05-19T09:38:52.485Z,10.30
2019-05-19T09:41:21.592Z,10.90
2019-05-19T09:43:50.800Z,12.13
2019-05-19T09:46:20.172Z,10.27
2019-05-19T09:48:51.437Z,9.30
2019-05-19T09:51:20.556Z,11.10
2019-05-19T09:53:49.604Z,9.73
2019-05-19T09:56:18.725Z,9.90
2019-05-19T09:58:47.920Z,9.70
2019-05-19T10:01:17.298Z,10.10
2019-05-19T10:03:46.401Z,7.67
2019-05-19T10:06:15.508Z,8.40
2019-05-19T10:08:52.215Z,9.40
2019-05-19T10:11:42.367Z,8.57
2019-05-19T10:14:11.542Z,7.53
2019-05-19T10:16:40.600Z,9.57
2019-05-19T10:19:09.790Z,9.87
2019-05-19T10:21:38.916Z,9.13
2019-05-19T10:24:07.984Z,7.77
2019-05-19T10:26:37.189Z,9.03
2019-05-19T10:29:06.318Z,9.27
2019-05-19T10:31:35.391Z,8.13
2019-05-19T10:34:04.588Z,8.13
2019-05-19T10:36:33.646Z,8.30
2019-05-19T10:39:03.514Z,8.50
2019-05-19T10:41:32.616Z,8.07
2019-05-19T10:44:02.099Z,7.77
2019-05-19T10:46:31.175Z,8.20
2019-05-19T10:49:00.365Z,6.80
2019-05-19T10:51:29.418Z,9.23
2019-05-19T10:53:58.554Z,9.63
2019-05-19T10:56:27.700Z,11.23
2019-05-19T10:58:56.748Z,10.30
2019-05-19T11:01:25.892Z,21.83
2019-05-19T11:03:54.986Z,16.27
2019-05-19T11:06:24.071Z,8.87
2019-05-19T11:08:53.159Z,7.97
2019-05-19T11:11:22.270Z,6.10
2019-05-19T11:13:51.363Z,7.20
2019-05-19T11:16:20.366Z,6.97
2019-05-19T11:18:49.511Z,8.13
2019-05-19T11:21:18.791Z,7.93
2019-05-19T11:23:47.883Z,7.10
2019-05-19T11:26:16.995Z,6.37
2019-05-19T11:28:46.164Z,6.77
2019-05-19T11:31:15.259Z,7.07
2019-05-19T11:33:44.291Z,6.73
2019-05-19T11:36:13.379Z,6.33
2019-05-19T11:38:42.423Z,7.00
2019-05-19T11:41:11.626Z,7.67
2019-05-19T11:43:40.801Z,6.73
2019-05-19T11:46:09.887Z,6.97
2019-05-19T11:48:39.012Z,5.77
2019-05-19T11:51:08.027Z,7.37
2019-05-19T11:53:37.299Z,7.80
2019-05-19T11:56:08.112Z,6.73
2019-05-19T11:58:37.200Z,7.40
2019-05-19T12:01:06.352Z,7.40
2019-05-19T12:03:35.451Z,6.77
2019-05-19T12:06:04.955Z,7.20
2019-05-19T12:08:33.969Z,7.50
2019-05-19T12:11:03.042Z,7.80
2019-05-19T12:13:34.975Z,7.20
2019-05-19T12:16:02.984Z,6.43
2019-05-19T12:18:32.384Z,6.63
2019-05-19T12:21:01.486Z,6.83
2019-05-19T12:23:30.779Z,12.20
2019-05-19T12:25:59.927Z,7.80
2019-05-19T12:28:28.949Z,7.70
2019-05-19T12:30:58.124Z,7.93
2019-05-19T12:33:27.225Z,6.67
2019-05-19T12:35:56.319Z,6.83
2019-05-19T12:38:25.504Z,7.03
2019-05-19T12:40:54.671Z,6.50
2019-05-19T12:43:23.676Z,6.60
2019-05-19T12:45:52.882Z,8.40
2019-05-19T12:48:22.030Z,8.10
2019-05-19T12:50:51.117Z,7.50
2019-05-19T12:53:20.266Z,7.07
2019-05-19T12:55:49.378Z,7.47
2019-05-19T12:58:18.812Z,6.33
2019-05-19T13:00:48.051Z,6.20
2019-05-19T13:03:17.112Z,5.13
2019-05-19T13:05:46.148Z,7.50
2019-05-19T13:08:15.300Z,7.03
2019-05-19T13:10:44.602Z,5.30
2019-05-19T13:13:13.851Z,5.17
2019-05-19T13:15:42.904Z,6.53
2019-05-19T13:18:12.043Z,5.63
2019-05-19T13:20:41.232Z,5.60
2019-05-19T13:23:10.677Z,5.97
2019-05-19T13:25:39.739Z,6.30
2019-05-19T13:28:08.915Z,6.53
2019-05-19T13:30:37.932Z,6.80
2019-05-19T13:33:07.048Z,6.47
2019-05-19T13:35:36.241Z,6.80
2019-05-19T13:38:05.371Z,7.00
2019-05-19T13:40:34.541Z,6.57
2019-05-19T13:43:03.661Z,5.43
2019-05-19T13:45:32.742Z,6.60
2019-05-19T13:48:01.929Z,5.63
2019-05-19T13:50:31.049Z,6.60
2019-05-19T13:53:00.140Z,6.30
2019-05-19T13:55:29.129Z,6.43
2019-05-19T13:57:58.181Z,6.50
2019-05-19T14:00:27.369Z,5.90
2019-05-19T14:02:56.509Z,7.10
2019-05-19T14:05:25.573Z,6.40
2019-05-19T14:07:54.595Z,6.03
2019-05-19T14:10:23.754Z,4.90
2019-05-19T14:12:53.152Z,5.93
2019-05-19T14:15:22.235Z,6.23
2019-05-19T14:17:51.416Z,4.70
2019-05-19T14:20:20.503Z,6.57
2019-05-19T14:22:49.608Z,5.53
2019-05-19T14:25:18.663Z,5.37
2019-05-19T14:27:47.742Z,6.40
2019-05-19T14:30:16.920Z,5.10
2019-05-19T14:32:45.969Z,5.50
2019-05-19T14:35:15.175Z,5.87
2019-05-19T14:37:44.870Z,5.53
2019-05-19T14:40:15.542Z,6.40
2019-05-19T14:42:57.642Z,4.50
2019-05-19T14:45:26.784Z,6.17
2019-05-19T14:47:55.897Z,5.20
2019-05-19T14:50:25.278Z,5.60
2019-05-19T14:52:54.370Z,5.23
2019-05-19T14:55:23.504Z,5.30
2019-05-19T14:57:52.654Z,5.90
2019-05-19T15:00:22.171Z,5.17
2019-05-19T15:02:51.318Z,5.70
2019-05-19T15:05:20.549Z,5.13
2019-05-19T15:07:49.764Z,5.10
2019-05-19T15:10:19.843Z,5.00
2019-05-19T15:12:48.942Z,4.20
2019-05-19T15:15:18.163Z,5.63
2019-05-19T15:17:47.252Z,5.10
2019-05-19T15:20:16.519Z,5.30
2019-05-19T15:22:45.703Z,5.30
2019-05-19T15:25:15.055Z,6.57
2019-05-19T15:27:58.957Z,5.70
2019-05-19T15:30:15.470Z,4.50
2019-05-19T15:32:44.458Z,5.13
2019-05-19T15:35:13.840Z,5.50
2019-05-19T15:37:42.855Z,5.50
2019-05-19T15:40:12.427Z,5.03
2019-05-19T15:42:41.683Z,4.97
2019-05-19T15:45:12.327Z,4.80
2019-05-19T15:47:41.441Z,4.97
2019-05-19T15:50:10.832Z,5.17
2019-05-19T15:52:40.027Z,4.40
2019-05-19T15:55:09.095Z,4.70
2019-05-19T15:57:38.537Z,5.00
2019-05-19T16:00:08.943Z,4.90
2019-05-19T16:02:38.039Z,4.77
2019-05-19T16:05:08.291Z,4.50
2019-05-19T16:07:37.238Z,4.90
2019-05-19T16:10:07.182Z,5.13
2019-05-19T16:12:36.670Z,4.77
2019-05-19T16:15:06.143Z,4.87
2019-05-19T16:17:35.164Z,4.67
2019-05-19T16:20:04.571Z,4.20
2019-05-19T16:22:33.676Z,5.43
2019-05-19T16:25:02.768Z,4.80
2019-05-19T16:27:31.855Z,4.17
2019-05-19T16:30:00.968Z,5.27
2019-05-19T16:32:30.080Z,5.13
2019-05-19T16:34:59.155Z,5.67
2019-05-19T16:37:28.287Z,5.03
2019-05-19T16:39:57.396Z,5.20
2019-05-19T16:42:26.767Z,6.33
2019-05-19T16:44:55.773Z,5.73
2019-05-19T16:47:24.999Z,4.63
2019-05-19T16:49:54.181Z,6.30
2019-05-19T16:52:23.171Z,5.70
2019-05-19T16:55:11.374Z,5.77
2019-05-19T16:57:40.434Z,5.80
2019-05-19T17:00:09.772Z,6.70
2019-05-19T17:02:38.936Z,7.00
2019-05-19T17:05:08.144Z,5.90
2019-05-19T17:07:37.241Z,5.80
2019-05-19T17:10:06.435Z,5.27
2019-05-19T17:12:35.507Z,6.77
2019-05-19T17:15:04.892Z,5.23
2019-05-19T17:17:34.010Z,6.00
2019-05-19T17:20:03.088Z,6.00
2019-05-19T17:22:32.088Z,5.60
2019-05-19T17:25:01.174Z,5.60
2019-05-19T17:27:30.342Z,6.00
2019-05-19T17:29:59.335Z,6.10
2019-05-19T17:32:28.533Z,5.43
2019-05-19T17:34:57.515Z,6.50
2019-05-19T17:37:26.599Z,6.43
2019-05-19T17:39:55.663Z,6.40
2019-05-19T17:42:24.863Z,6.10
2019-05-19T17:44:53.910Z,6.70
2019-05-19T17:47:23.164Z,6.97
2019-05-19T17:49:52.270Z,8.17
2019-05-19T17:52:21.491Z,7.50
2019-05-19T17:54:50.769Z,8.50
2019-05-19T17:57:20.332Z,9.43
2019-05-19T17:59:50.616Z,8.17
2019-05-19T18:02:19.796Z,7.50
2019-05-19T18:04:48.824Z,7.63
2019-05-19T18:07:17.827Z,8.50
2019-05-19T18:09:46.974Z,6.80
2019-05-19T18:12:16.054Z,6.00
2019-05-19T18:14:45.097Z,6.20
2019-05-19T18:17:14.201Z,7.30
2019-05-19T18:19:43.296Z,6.00
2019-05-19T18:22:12.561Z,5.80
2019-05-19T18:24:42.035Z,6.10
2019-05-19T18:27:11.171Z,6.00
2019-05-19T18:29:47.539Z,5.97
2019-05-19T18:32:16.631Z,5.73
2019-05-19T18:34:45.707Z,6.43
2019-05-19T18:37:14.812Z,7.37
2019-05-19T18:39:43.860Z,5.90
2019-05-19T18:42:12.920Z,6.90
2019-05-19T18:44:42.104Z,6.40
2019-05-19T18:47:11.182Z,6.10
2019-05-19T18:49:40.332Z,7.10
2019-05-19T18:52:09.392Z,6.07
2019-05-19T18:54:38.543Z,6.97
2019-05-19T18:57:07.955Z,7.67
2019-05-19T18:59:46.970Z,6.47
2019-05-19T19:02:08.099Z,6.70
2019-05-19T19:04:37.204Z,6.57
2019-05-19T19:07:06.324Z,5.47
2019-05-19T19:09:35.432Z,6.50
2019-05-19T19:12:04.591Z,5.80
2019-05-19T19:14:33.691Z,6.47
2019-05-19T19:17:02.989Z,5.77
2019-05-19T19:19:32.093Z,6.30
2019-05-19T19:22:01.272Z,5.47
2019-05-19T19:24:30.326Z,6.37
2019-05-19T19:26:59.487Z,5.40
2019-05-19T19:29:29.080Z,6.07
2019-05-19T19:31:58.238Z,5.00
2019-05-19T19:34:27.281Z,6.03
2019-05-19T19:36:56.442Z,7.67
2019-05-19T19:39:25.442Z,7.40
2019-05-19T19:41:54.572Z,7.70
2019-05-19T19:44:23.670Z,7.47
2019-05-19T19:46:53.799Z,8.30
2019-05-19T19:49:23.054Z,7.53
2019-05-19T19:51:52.168Z,9.03
2019-05-19T19:54:21.183Z,7.30
2019-05-19T19:56:50.235Z,8.20
2019-05-19T19:59:19.659Z,8.43
2019-05-19T20:01:48.818Z,9.50
2019-05-19T20:04:18.169Z,8.83
2019-05-19T20:06:47.259Z,8.87
2019-05-19T20:09:16.416Z,8.70
2019-05-19T20:11:45.851Z,9.60
2019-05-19T20:14:14.911Z,10.03
2019-05-19T20:16:44.273Z,9.50
2019-05-19T20:19:13.339Z,9.27
2019-05-19T20:21:42.369Z,9.47
2019-05-19T20:24:11.459Z,9.33
2019-05-19T20:26:40.490Z,8.00
2019-05-19T20:29:09.585Z,9.70
2019-05-19T20:31:38.616Z,10.00
2019-05-19T20:34:07.787Z,10.90
2019-05-19T20:36:36.887Z,10.13
2019-05-19T20:39:06.971Z,9.33
2019-05-19T20:41:36.180Z,10.20
2019-05-19T20:44:05.354Z,9.37
2019-05-19T20:46:34.419Z,9.50
2019-05-19T20:49:03.560Z,8.40
2019-05-19T20:51:33.925Z,9.40
2019-05-19T20:54:03.045Z,8.90
2019-05-19T20:56:32.368Z,8.60
2019-05-19T20:59:01.363Z,9.30
2019-05-19T21:01:30.403Z,9.13
2019-05-19T21:03:59.411Z,9.10
2019-05-19T21:06:28.509Z,9.53
2019-05-19T21:08:57.510Z,9.67
2019-05-19T21:11:26.651Z,9.67
2019-05-19T21:13:55.825Z,10.70
2019-05-19T21:16:24.873Z,8.83
2019-05-19T21:18:54.000Z,9.80
2019-05-19T21:21:23.000Z,8.73
2019-05-19T21:23:52.139Z,8.63
2019-05-19T21:26:21.432Z,8.93
2019-05-19T21:28:50.503Z,8.67
2019-05-19T21:31:19.597Z,8.90
2019-05-19T21:33:48.975Z,9.67
2019-05-19T21:36:18.018Z,9.00
2019-05-19T21:38:47.044Z,8.90
2019-05-19T21:41:16.039Z,8.37
2019-05-19T21:43:45.239Z,8.20
2019-05-19T21:46:14.270Z,9.27
2019-05-19T21:48:43.379Z,9.00
2019-05-19T21:51:12.797Z,9.30
2019-05-19T21:53:41.800Z,8.80
2019-05-19T21:56:10.923Z,8.03
2019-05-19T21:58:40.269Z,9.00
2019-05-19T22:01:22.255Z,9.13
2019-05-19T22:03:40.526Z,7.77
2019-05-19T22:06:09.699Z,6.93
2019-05-19T22:08:38.696Z,8.80
2019-05-19T22:11:08.175Z,8.40
2019-05-19T22:13:37.534Z,7.77
2019-05-19T22:16:13.066Z,8.20
2019-05-19T22:18:37.473Z,8.00
2019-05-19T22:21:06.479Z,7.97
2019-05-19T22:23:35.600Z,7.50
2019-05-19T22:26:04.759Z,7.40
2019-05-19T22:28:33.807Z,7.87
2019-05-19T22:31:02.874Z,7.17
2019-05-19T22:33:32.026Z,8.70
2019-05-19T22:36:01.276Z,8.27
2019-05-19T22:38:30.391Z,7.97
2019-05-19T22:40:59.499Z,9.07
2019-05-19T22:43:28.524Z,7.73
2019-05-19T22:45:57.573Z,9.90
2019-05-19T22:48:26.705Z,10.13
2019-05-19T22:50:55.735Z,8.97
2019-05-19T22:53:24.763Z,9.53
2019-05-19T22:55:53.883Z,10.10
2019-05-19T22:58:22.990Z,9.90
2019-05-19T23:00:52.127Z,10.20
2019-05-19T23:03:21.233Z,9.67
2019-05-19T23:05:50.408Z,9.37
2019-05-19T23:08:19.483Z,9.97
2019-05-19T23:10:48.610Z,10.83
2019-05-19T23:13:17.779Z,10.73
2019-05-19T23:15:46.993Z,10.50
2019-05-19T23:18:16.086Z,9.17
2019-05-19T23:20:45.193Z,10.90
2019-05-19T23:23:14.308Z,12.30
2019-05-19T23:25:43.383Z,10.17
2019-05-19T23:28:12.475Z,11.27
2019-05-19T23:30:41.605Z,11.73
2019-05-19T23:33:10.732Z,11.20
2019-05-19T23:35:39.836Z,11.07
2019-05-19T23:38:08.918Z,10.90
2019-05-19T23:40:38.043Z,11.40
2019-05-19T23:43:07.159Z,10.60
2019-05-19T23:45:36.192Z,10.17
2019-05-19T23:48:05.406Z,10.90
2019-05-19T23:50:34.588Z,10.27
2019-05-19T23:53:03.713Z,10.37
2019-05-19T23:55:32.735Z,9.60
2019-05-19T23:58:01.861Z,9.90
